sensor_id;sensor_type;location;lat;lon;timestamp;temperature;humidity
43015;DHT22;28637;50.554;7.032;2023-04-25T00:03:20;7.80;99.90
43015;DHT22;28637;50.554;7.032;2023-04-25T00:08:21;7.90;99.90
43015;DHT22;28637;50.554;7.032;2023-04-25T00:13:22;7.90;99.90
43015;DHT22;28637;50.554;7.032;2023-04-25T00:18:24;7.90;99.90
43015;DHT22;28637;50.554;7.032;2023-04-25T00:23:25;7.90;99.90
43015;DHT22;28637;50.554;7.032;2023-04-25T00:28:26;7.80;99.90
43015;DHT22;28637;50.554;7.032;2023-04-25T00:33:27;7.80;99.90
43015;DHT22;28637;50.554;7.032;2023-04-25T00:38:28;7.70;99.90
43015;DHT22;28637;50.554;7.032;2023-04-25T00:43:30;7.60;99.90
43015;DHT22;28637;50.554;7.032;2023-04-25T00:48:35;7.60;99.90
43015;DHT22;28637;50.554;7.032;2023-04-25T00:53:36;7.60;99.90
43015;DHT22;28637;50.554;7.032;2023-04-25T00:58:37;7.50;99.90
43015;DHT22;28637;50.554;7.032;2023-04-25T01:03:39;7.50;99.90
43015;DHT22;28637;50.554;7.032;2023-04-25T01:08:43;7.20;99.90
43015;DHT22;28637;50.554;7.032;2023-04-25T01:13:44;6.90;99.90
43015;DHT22;28637;50.554;7.032;2023-04-25T01:18:45;6.80;99.90
43015;DHT22;28637;50.554;7.032;2023-04-25T01:23:47;6.70;99.90
43015;DHT22;28637;50.554;7.032;2023-04-25T01:28:48;6.50;99.90
43015;DHT22;28637;50.554;7.032;2023-04-25T01:33:49;6.30;99.90
43015;DHT22;28637;50.554;7.032;2023-04-25T01:38:50;6.10;99.90
43015;DHT22;28637;50.554;7.032;2023-04-25T01:43:51;5.80;99.90
43015;DHT22;28637;50.554;7.032;2023-04-25T01:48:52;5.60;99.90
43015;DHT22;28637;50.554;7.032;2023-04-25T01:53:55;5.50;99.90
43015;DHT22;28637;50.554;7.032;2023-04-25T01:58:57;5.60;99.90
43015;DHT22;28637;50.554;7.032;2023-04-25T02:03:58;5.70;99.90
43015;DHT22;28637;50.554;7.032;2023-04-25T02:09:34;5.70;99.90
43015;DHT22;28637;50.554;7.032;2023-04-25T02:14:35;5.60;99.90
43015;DHT22;28637;50.554;7.032;2023-04-25T02:19:36;6.00;99.90
43015;DHT22;28637;50.554;7.032;2023-04-25T02:24:36;6.10;99.90
43015;DHT22;28637;50.554;7.032;2023-04-25T02:29:37;6.30;99.90
43015;DHT22;28637;50.554;7.032;2023-04-25T02:34:38;6.30;99.90
43015;DHT22;28637;50.554;7.032;2023-04-25T02:39:39;6.40;99.90
43015;DHT22;28637;50.554;7.032;2023-04-25T02:44:40;6.50;99.90
43015;DHT22;28637;50.554;7.032;2023-04-25T02:49:41;6.60;99.90
43015;DHT22;28637;50.554;7.032;2023-04-25T02:54:41;6.60;99.90
43015;DHT22;28637;50.554;7.032;2023-04-25T02:59:42;6.60;99.90
43015;DHT22;28637;50.554;7.032;2023-04-25T03:04:43;6.70;99.90
43015;DHT22;28637;50.554;7.032;2023-04-25T03:09:44;6.90;99.90
43015;DHT22;28637;50.554;7.032;2023-04-25T03:14:44;6.90;99.90
43015;DHT22;28637;50.554;7.032;2023-04-25T03:19:46;7.00;99.90
43015;DHT22;28637;50.554;7.032;2023-04-25T03:24:47;7.00;99.90
43015;DHT22;28637;50.554;7.032;2023-04-25T03:29:48;7.00;99.90
43015;DHT22;28637;50.554;7.032;2023-04-25T03:34:48;7.00;99.90
43015;DHT22;28637;50.554;7.032;2023-04-25T03:39:49;7.00;99.90
43015;DHT22;28637;50.554;7.032;2023-04-25T03:44:51;7.00;99.90
43015;DHT22;28637;50.554;7.032;2023-04-25T03:49:52;6.90;99.90
43015;DHT22;28637;50.554;7.032;2023-04-25T03:54:52;7.00;99.90
43015;DHT22;28637;50.554;7.032;2023-04-25T03:59:59;7.00;99.90
43015;DHT22;28637;50.554;7.032;2023-04-25T04:04:59;7.00;99.90
43015;DHT22;28637;50.554;7.032;2023-04-25T04:10:00;6.90;99.90
43015;DHT22;28637;50.554;7.032;2023-04-25T04:15:03;6.80;99.90
43015;DHT22;28637;50.554;7.032;2023-04-25T04:20:08;6.80;99.90
43015;DHT22;28637;50.554;7.032;2023-04-25T04:25:09;6.90;99.90
43015;DHT22;28637;50.554;7.032;2023-04-25T04:30:14;6.90;99.90
43015;DHT22;28637;50.554;7.032;2023-04-25T04:35:15;7.00;99.90
43015;DHT22;28637;50.554;7.032;2023-04-25T04:40:19;7.00;99.90
43015;DHT22;28637;50.554;7.032;2023-04-25T04:45:23;7.10;99.90
43015;DHT22;28637;50.554;7.032;2023-04-25T04:50:24;7.10;99.90
43015;DHT22;28637;50.554;7.032;2023-04-25T04:55:25;7.10;99.90
43015;DHT22;28637;50.554;7.032;2023-04-25T05:00:26;7.20;99.90
43015;DHT22;28637;50.554;7.032;2023-04-25T05:05:27;7.20;99.90
43015;DHT22;28637;50.554;7.032;2023-04-25T05:10:28;7.20;99.90
43015;DHT22;28637;50.554;7.032;2023-04-25T05:15:29;7.20;99.90
43015;DHT22;28637;50.554;7.032;2023-04-25T05:20:30;7.20;99.90
43015;DHT22;28637;50.554;7.032;2023-04-25T05:25:31;7.30;99.90
43015;DHT22;28637;50.554;7.032;2023-04-25T05:30:32;7.40;99.90
43015;DHT22;28637;50.554;7.032;2023-04-25T05:35:34;7.50;99.90
43015;DHT22;28637;50.554;7.032;2023-04-25T05:40:35;7.50;99.90
43015;DHT22;28637;50.554;7.032;2023-04-25T05:45:35;7.50;99.90
43015;DHT22;28637;50.554;7.032;2023-04-25T05:50:36;7.40;99.90
43015;DHT22;28637;50.554;7.032;2023-04-25T05:55:37;7.40;99.90
43015;DHT22;28637;50.554;7.032;2023-04-25T06:00:37;7.40;99.90
43015;DHT22;28637;50.554;7.032;2023-04-25T06:05:38;7.50;99.90
43015;DHT22;28637;50.554;7.032;2023-04-25T06:10:39;7.40;99.90
43015;DHT22;28637;50.554;7.032;2023-04-25T06:15:39;7.40;99.90
43015;DHT22;28637;50.554;7.032;2023-04-25T06:20:40;7.40;99.90
43015;DHT22;28637;50.554;7.032;2023-04-25T06:25:41;7.50;99.90
43015;DHT22;28637;50.554;7.032;2023-04-25T06:30:41;7.50;99.90
43015;DHT22;28637;50.554;7.032;2023-04-25T06:35:42;7.60;99.90
43015;DHT22;28637;50.554;7.032;2023-04-25T06:40:43;7.60;99.90
43015;DHT22;28637;50.554;7.032;2023-04-25T06:45:43;7.60;99.90
43015;DHT22;28637;50.554;7.032;2023-04-25T06:50:44;7.70;99.90
43015;DHT22;28637;50.554;7.032;2023-04-25T06:55:45;7.70;99.90
43015;DHT22;28637;50.554;7.032;2023-04-25T07:00:45;7.80;99.90
43015;DHT22;28637;50.554;7.032;2023-04-25T07:05:46;7.90;99.90
43015;DHT22;28637;50.554;7.032;2023-04-25T07:10:47;8.00;99.90
43015;DHT22;28637;50.554;7.032;2023-04-25T07:15:47;8.00;99.90
43015;DHT22;28637;50.554;7.032;2023-04-25T07:20:48;7.90;99.90
43015;DHT22;28637;50.554;7.032;2023-04-25T07:25:49;8.10;99.90
43015;DHT22;28637;50.554;7.032;2023-04-25T07:30:50;8.30;99.90
43015;DHT22;28637;50.554;7.032;2023-04-25T07:35:51;8.50;99.90
43015;DHT22;28637;50.554;7.032;2023-04-25T07:40:52;8.60;99.90
43015;DHT22;28637;50.554;7.032;2023-04-25T07:45:53;8.70;99.90
43015;DHT22;28637;50.554;7.032;2023-04-25T07:50:53;8.70;99.90
43015;DHT22;28637;50.554;7.032;2023-04-25T07:55:54;8.70;99.90
43015;DHT22;28637;50.554;7.032;2023-04-25T08:00:55;8.70;99.90
43015;DHT22;28637;50.554;7.032;2023-04-25T08:05:55;8.70;99.90
43015;DHT22;28637;50.554;7.032;2023-04-25T08:10:56;8.70;99.90
43015;DHT22;28637;50.554;7.032;2023-04-25T08:15:56;8.90;99.90
43015;DHT22;28637;50.554;7.032;2023-04-25T08:20:57;9.00;99.90
43015;DHT22;28637;50.554;7.032;2023-04-25T08:25:58;8.90;99.90
43015;DHT22;28637;50.554;7.032;2023-04-25T08:30:59;8.80;99.90
43015;DHT22;28637;50.554;7.032;2023-04-25T08:36:00;8.90;99.90
43015;DHT22;28637;50.554;7.032;2023-04-25T08:41:00;8.90;99.90
43015;DHT22;28637;50.554;7.032;2023-04-25T08:46:01;9.00;99.90
43015;DHT22;28637;50.554;7.032;2023-04-25T08:51:04;9.20;99.90
43015;DHT22;28637;50.554;7.032;2023-04-25T08:56:07;9.20;99.90
43015;DHT22;28637;50.554;7.032;2023-04-25T09:01:09;9.30;99.90
43015;DHT22;28637;50.554;7.032;2023-04-25T09:06:10;9.30;99.90
43015;DHT22;28637;50.554;7.032;2023-04-25T09:11:12;9.50;99.90
43015;DHT22;28637;50.554;7.032;2023-04-25T09:16:14;9.70;99.90
43015;DHT22;28637;50.554;7.032;2023-04-25T09:21:17;10.20;99.90
43015;DHT22;28637;50.554;7.032;2023-04-25T09:26:22;10.50;99.90
43015;DHT22;28637;50.554;7.032;2023-04-25T09:31:23;10.60;99.90
43015;DHT22;28637;50.554;7.032;2023-04-25T09:36:27;10.70;99.90
43015;DHT22;28637;50.554;7.032;2023-04-25T09:41:28;10.40;99.90
43015;DHT22;28637;50.554;7.032;2023-04-25T09:46:34;10.40;99.90
43015;DHT22;28637;50.554;7.032;2023-04-25T09:51:35;10.10;99.90
43015;DHT22;28637;50.554;7.032;2023-04-25T09:56:36;9.80;99.90
43015;DHT22;28637;50.554;7.032;2023-04-25T10:01:40;9.70;99.90
43015;DHT22;28637;50.554;7.032;2023-04-25T10:06:45;9.80;99.90
43015;DHT22;28637;50.554;7.032;2023-04-25T10:11:46;9.80;99.90
43015;DHT22;28637;50.554;7.032;2023-04-25T10:16:50;10.10;99.90
43015;DHT22;28637;50.554;7.032;2023-04-25T10:27:09;10.40;99.90
43015;DHT22;28637;50.554;7.032;2023-04-25T10:32:10;10.20;99.90
43015;DHT22;28637;50.554;7.032;2023-04-25T10:37:12;10.20;99.90
43015;DHT22;28637;50.554;7.032;2023-04-25T10:42:13;10.20;99.90
43015;DHT22;28637;50.554;7.032;2023-04-25T10:47:38;10.70;99.90
43015;DHT22;28637;50.554;7.032;2023-04-25T10:52:43;11.40;99.90
43015;DHT22;28637;50.554;7.032;2023-04-25T10:57:47;11.60;99.90
43015;DHT22;28637;50.554;7.032;2023-04-25T11:02:57;11.40;99.90
43015;DHT22;28637;50.554;7.032;2023-04-25T11:07:59;11.60;99.90
43015;DHT22;28637;50.554;7.032;2023-04-25T11:13:00;11.20;99.90
43015;DHT22;28637;50.554;7.032;2023-04-25T11:18:00;11.00;99.90
43015;DHT22;28637;50.554;7.032;2023-04-25T11:23:01;11.50;99.90
43015;DHT22;28637;50.554;7.032;2023-04-25T11:28:02;11.70;99.90
43015;DHT22;28637;50.554;7.032;2023-04-25T11:33:03;11.90;99.90
43015;DHT22;28637;50.554;7.032;2023-04-25T11:38:04;12.30;99.90
43015;DHT22;28637;50.554;7.032;2023-04-25T11:43:05;12.20;98.10
43015;DHT22;28637;50.554;7.032;2023-04-25T11:48:06;12.30;96.30
43015;DHT22;28637;50.554;7.032;2023-04-25T11:53:07;12.30;95.90
43015;DHT22;28637;50.554;7.032;2023-04-25T11:58:08;12.20;96.40
43015;DHT22;28637;50.554;7.032;2023-04-25T12:03:09;12.10;96.00
43015;DHT22;28637;50.554;7.032;2023-04-25T12:08:13;12.10;97.50
43015;DHT22;28637;50.554;7.032;2023-04-25T12:13:22;11.80;96.80
43015;DHT22;28637;50.554;7.032;2023-04-25T12:18:24;11.40;96.20
43015;DHT22;28637;50.554;7.032;2023-04-25T12:23:28;11.10;98.00
43015;DHT22;28637;50.554;7.032;2023-04-25T12:28:32;10.90;98.80
43015;DHT22;28637;50.554;7.032;2023-04-25T12:33:35;10.90;99.80
43015;DHT22;28637;50.554;7.032;2023-04-25T12:38:37;11.20;99.90
43015;DHT22;28637;50.554;7.032;2023-04-25T12:43:38;11.50;99.90
43015;DHT22;28637;50.554;7.032;2023-04-25T12:48:39;11.40;99.70
43015;DHT22;28637;50.554;7.032;2023-04-25T12:53:41;11.20;98.70
43015;DHT22;28637;50.554;7.032;2023-04-25T12:58:41;11.00;98.70
43015;DHT22;28637;50.554;7.032;2023-04-25T13:03:44;10.60;99.90
43015;DHT22;28637;50.554;7.032;2023-04-25T13:08:45;10.50;99.90
43015;DHT22;28637;50.554;7.032;2023-04-25T13:13:46;10.50;99.90
43015;DHT22;28637;50.554;7.032;2023-04-25T13:18:46;10.50;99.90
43015;DHT22;28637;50.554;7.032;2023-04-25T13:23:47;10.60;99.90
43015;DHT22;28637;50.554;7.032;2023-04-25T13:28:48;10.70;99.90
43015;DHT22;28637;50.554;7.032;2023-04-25T13:33:48;10.60;99.90
43015;DHT22;28637;50.554;7.032;2023-04-25T13:38:49;10.70;99.90
43015;DHT22;28637;50.554;7.032;2023-04-25T13:43:49;10.60;99.90
43015;DHT22;28637;50.554;7.032;2023-04-25T13:48:50;10.60;99.90
43015;DHT22;28637;50.554;7.032;2023-04-25T13:53:51;10.50;99.90
43015;DHT22;28637;50.554;7.032;2023-04-25T13:58:52;10.30;99.90
43015;DHT22;28637;50.554;7.032;2023-04-25T14:03:52;10.20;99.90
43015;DHT22;28637;50.554;7.032;2023-04-25T14:08:53;10.20;99.90
43015;DHT22;28637;50.554;7.032;2023-04-25T14:13:54;10.40;99.90
43015;DHT22;28637;50.554;7.032;2023-04-25T14:18:55;10.30;99.90
43015;DHT22;28637;50.554;7.032;2023-04-25T14:23:56;10.20;99.90
43015;DHT22;28637;50.554;7.032;2023-04-25T14:28:56;10.00;99.90
43015;DHT22;28637;50.554;7.032;2023-04-25T14:33:57;9.90;99.90
43015;DHT22;28637;50.554;7.032;2023-04-25T14:38:58;9.80;99.90
43015;DHT22;28637;50.554;7.032;2023-04-25T14:43:59;9.90;99.90
43015;DHT22;28637;50.554;7.032;2023-04-25T14:49:00;9.90;99.90
43015;DHT22;28637;50.554;7.032;2023-04-25T14:54:00;10.00;99.90
43015;DHT22;28637;50.554;7.032;2023-04-25T14:59:01;10.30;99.90
43015;DHT22;28637;50.554;7.032;2023-04-25T15:04:02;11.00;99.90
43015;DHT22;28637;50.554;7.032;2023-04-25T15:09:03;11.30;99.90
43015;DHT22;28637;50.554;7.032;2023-04-25T15:14:04;11.10;99.90
43015;DHT22;28637;50.554;7.032;2023-04-25T15:19:06;11.20;99.90
43015;DHT22;28637;50.554;7.032;2023-04-25T15:24:07;11.70;99.00
43015;DHT22;28637;50.554;7.032;2023-04-25T15:29:08;12.20;97.50
43015;DHT22;28637;50.554;7.032;2023-04-25T15:34:08;12.10;95.60
43015;DHT22;28637;50.554;7.032;2023-04-25T15:39:09;11.80;98.20
43015;DHT22;28637;50.554;7.032;2023-04-25T15:44:10;11.50;98.40
43015;DHT22;28637;50.554;7.032;2023-04-25T15:49:11;11.30;96.50
43015;DHT22;28637;50.554;7.032;2023-04-25T15:54:11;11.10;96.70
43015;DHT22;28637;50.554;7.032;2023-04-25T15:59:12;11.00;96.00
43015;DHT22;28637;50.554;7.032;2023-04-25T16:04:13;10.80;97.30
43015;DHT22;28637;50.554;7.032;2023-04-25T16:09:15;10.70;97.60
43015;DHT22;28637;50.554;7.032;2023-04-25T16:14:16;10.50;98.00
43015;DHT22;28637;50.554;7.032;2023-04-25T16:19:17;10.40;99.70
43015;DHT22;28637;50.554;7.032;2023-04-25T16:24:18;10.30;99.90
43015;DHT22;28637;50.554;7.032;2023-04-25T16:29:18;10.20;99.90
43015;DHT22;28637;50.554;7.032;2023-04-25T16:34:19;10.20;99.90
43015;DHT22;28637;50.554;7.032;2023-04-25T16:39:22;10.30;99.90
43015;DHT22;28637;50.554;7.032;2023-04-25T16:44:23;10.60;99.90
43015;DHT22;28637;50.554;7.032;2023-04-25T16:49:24;11.20;99.90
43015;DHT22;28637;50.554;7.032;2023-04-25T16:54:26;11.50;99.90
43015;DHT22;28637;50.554;7.032;2023-04-25T16:59:27;11.70;98.30
43015;DHT22;28637;50.554;7.032;2023-04-25T17:04:28;11.80;97.40
43015;DHT22;28637;50.554;7.032;2023-04-25T17:09:28;11.60;97.40
43015;DHT22;28637;50.554;7.032;2023-04-25T17:14:29;11.20;97.90
43015;DHT22;28637;50.554;7.032;2023-04-25T17:19:32;11.00;99.70
43015;DHT22;28637;50.554;7.032;2023-04-25T17:24:33;10.90;99.90
43015;DHT22;28637;50.554;7.032;2023-04-25T17:29:33;10.60;99.90
43015;DHT22;28637;50.554;7.032;2023-04-25T17:34:35;10.40;99.90
43015;DHT22;28637;50.554;7.032;2023-04-25T17:39:37;10.30;99.90
43015;DHT22;28637;50.554;7.032;2023-04-25T17:44:37;10.10;99.90
43015;DHT22;28637;50.554;7.032;2023-04-25T17:49:38;9.90;99.90
43015;DHT22;28637;50.554;7.032;2023-04-25T17:54:40;9.80;99.90
43015;DHT22;28637;50.554;7.032;2023-04-25T17:59:41;9.60;99.90
43015;DHT22;28637;50.554;7.032;2023-04-25T18:04:42;9.50;99.90
43015;DHT22;28637;50.554;7.032;2023-04-25T18:09:43;9.30;99.90
43015;DHT22;28637;50.554;7.032;2023-04-25T18:14:44;9.20;99.90
43015;DHT22;28637;50.554;7.032;2023-04-25T18:19:45;9.10;99.90
43015;DHT22;28637;50.554;7.032;2023-04-25T18:24:49;8.90;99.90
43015;DHT22;28637;50.554;7.032;2023-04-25T18:29:49;8.70;99.90
43015;DHT22;28637;50.554;7.032;2023-04-25T18:34:50;8.50;99.90
43015;DHT22;28637;50.554;7.032;2023-04-25T18:39:51;8.40;99.90
43015;DHT22;28637;50.554;7.032;2023-04-25T18:44:51;8.30;99.90
43015;DHT22;28637;50.554;7.032;2023-04-25T18:49:52;8.20;99.90
43015;DHT22;28637;50.554;7.032;2023-04-25T18:54:52;7.80;99.90
43015;DHT22;28637;50.554;7.032;2023-04-25T18:59:53;7.60;99.90
43015;DHT22;28637;50.554;7.032;2023-04-25T19:04:54;7.40;99.90
43015;DHT22;28637;50.554;7.032;2023-04-25T19:09:54;7.40;99.90
43015;DHT22;28637;50.554;7.032;2023-04-25T19:14:55;7.20;99.90
43015;DHT22;28637;50.554;7.032;2023-04-25T19:19:56;7.10;99.90
43015;DHT22;28637;50.554;7.032;2023-04-25T19:24:56;7.10;99.90
43015;DHT22;28637;50.554;7.032;2023-04-25T19:29:58;7.20;99.90
43015;DHT22;28637;50.554;7.032;2023-04-25T19:35:07;7.30;99.90
43015;DHT22;28637;50.554;7.032;2023-04-25T19:40:09;7.30;99.90
43015;DHT22;28637;50.554;7.032;2023-04-25T19:45:10;7.20;99.90
43015;DHT22;28637;50.554;7.032;2023-04-25T19:50:11;7.00;99.90
43015;DHT22;28637;50.554;7.032;2023-04-25T19:55:12;6.70;99.90
43015;DHT22;28637;50.554;7.032;2023-04-25T20:00:15;6.40;99.90
43015;DHT22;28637;50.554;7.032;2023-04-25T20:05:16;6.40;99.90
43015;DHT22;28637;50.554;7.032;2023-04-25T20:10:17;6.30;99.90
43015;DHT22;28637;50.554;7.032;2023-04-25T20:15:18;6.10;99.90
43015;DHT22;28637;50.554;7.032;2023-04-25T20:20:19;5.80;99.90
43015;DHT22;28637;50.554;7.032;2023-04-25T20:25:21;5.80;99.90
43015;DHT22;28637;50.554;7.032;2023-04-25T20:30:22;5.70;99.90
43015;DHT22;28637;50.554;7.032;2023-04-25T20:35:22;5.70;99.90
43015;DHT22;28637;50.554;7.032;2023-04-25T20:40:23;5.80;99.90
43015;DHT22;28637;50.554;7.032;2023-04-25T20:45:24;5.80;99.90
43015;DHT22;28637;50.554;7.032;2023-04-25T20:50:30;5.80;99.90
43015;DHT22;28637;50.554;7.032;2023-04-25T20:55:30;5.90;99.90
43015;DHT22;28637;50.554;7.032;2023-04-25T21:00:32;5.90;99.90
43015;DHT22;28637;50.554;7.032;2023-04-25T21:05:33;6.10;99.90
43015;DHT22;28637;50.554;7.032;2023-04-25T21:10:34;6.20;99.90
43015;DHT22;28637;50.554;7.032;2023-04-25T21:15:34;6.30;99.90
43015;DHT22;28637;50.554;7.032;2023-04-25T21:20:35;6.40;99.90
43015;DHT22;28637;50.554;7.032;2023-04-25T21:25:36;6.50;99.90
43015;DHT22;28637;50.554;7.032;2023-04-25T21:30:36;6.60;99.90
43015;DHT22;28637;50.554;7.032;2023-04-25T21:35:37;6.70;99.90
43015;DHT22;28637;50.554;7.032;2023-04-25T21:40:39;6.70;99.90
43015;DHT22;28637;50.554;7.032;2023-04-25T21:45:39;6.80;99.90
43015;DHT22;28637;50.554;7.032;2023-04-25T21:50:40;6.80;99.90
43015;DHT22;28637;50.554;7.032;2023-04-25T21:55:41;6.90;99.90
43015;DHT22;28637;50.554;7.032;2023-04-25T22:00:42;6.90;99.90
43015;DHT22;28637;50.554;7.032;2023-04-25T22:05:43;6.90;99.90
43015;DHT22;28637;50.554;7.032;2023-04-25T22:10:44;7.00;99.90
43015;DHT22;28637;50.554;7.032;2023-04-25T22:15:45;7.10;99.90
43015;DHT22;28637;50.554;7.032;2023-04-25T22:20:47;7.10;99.90
43015;DHT22;28637;50.554;7.032;2023-04-25T22:25:48;7.10;99.90
43015;DHT22;28637;50.554;7.032;2023-04-25T22:30:49;7.10;99.90
43015;DHT22;28637;50.554;7.032;2023-04-25T22:35:50;7.10;99.90
43015;DHT22;28637;50.554;7.032;2023-04-25T22:40:50;7.10;99.90
43015;DHT22;28637;50.554;7.032;2023-04-25T22:45:51;7.00;99.90
43015;DHT22;28637;50.554;7.032;2023-04-25T22:51:03;6.90;99.90
43015;DHT22;28637;50.554;7.032;2023-04-25T22:56:13;6.90;99.90
43015;DHT22;28637;50.554;7.032;2023-04-25T23:01:14;6.80;99.90
43015;DHT22;28637;50.554;7.032;2023-04-25T23:06:16;6.80;99.90
43015;DHT22;28637;50.554;7.032;2023-04-25T23:11:16;6.80;99.90
43015;DHT22;28637;50.554;7.032;2023-04-25T23:16:17;6.80;99.90
43015;DHT22;28637;50.554;7.032;2023-04-25T23:21:17;6.80;99.90
43015;DHT22;28637;50.554;7.032;2023-04-25T23:26:19;6.80;99.90
43015;DHT22;28637;50.554;7.032;2023-04-25T23:31:20;6.80;99.90
43015;DHT22;28637;50.554;7.032;2023-04-25T23:36:21;6.80;99.90
43015;DHT22;28637;50.554;7.032;2023-04-25T23:41:21;6.80;99.90
43015;DHT22;28637;50.554;7.032;2023-04-25T23:46:22;6.80;99.90
43015;DHT22;28637;50.554;7.032;2023-04-25T23:51:23;6.80;99.90
43015;DHT22;28637;50.554;7.032;2023-04-25T23:56:24;6.70;99.90
